Time;durP1;ratioP1;P1;durP2;ratioP2;P2;SDS_P1;SDS_P2;PMS_P1;PMS_P2;Temp;Humidity;BMP_temperature;BMP_pressure;BME280_temperature;BME280_humidity;BME280_pressure;Samples;Min_cycle;Max_cycle;Signal;HPM_P1;HPM_P2
2021/07/06 00:00:23;;;;;;;3.80;1.67;;;17.80;99.90;;;;;;4975722;28;20204;-63
2021/07/06 00:02:51;;;;;;;2.10;1.90;;;17.80;99.90;;;;;;4975535;28;20212;-63
2021/07/06 00:05:20;;;;;;;4.77;1.90;;;17.80;85.70;;;;;;4975176;28;20212;-63
2021/07/06 00:07:47;;;;;;;3.30;1.77;;;17.90;1.00;;;;;;4975521;28;20629;-63
2021/07/06 00:10:15;;;;;;;2.93;1.80;;;17.90;30.70;;;;;;4975558;28;20209;-63
2021/07/06 00:12:42;;;;;;;3.30;1.67;;;17.90;1.00;;;;;;4975377;28;20404;-63
2021/07/06 00:15:11;;;;;;;1.70;1.60;;;17.90;86.10;;;;;;4975047;28;20232;-63
2021/07/06 00:17:38;;;;;;;4.03;1.80;;;17.90;1.00;;;;;;4975150;28;20229;-63
2021/07/06 00:20:07;;;;;;;2.10;1.70;;;17.90;99.90;;;;;;4975000;28;20208;-63
2021/07/06 00:22:36;;;;;;;3.40;1.80;;;17.90;63.20;;;;;;4974594;28;20234;-63
2021/07/06 00:25:03;;;;;;;2.70;1.50;;;17.80;99.90;;;;;;4974958;28;20282;-63
2021/07/06 00:27:29;;;;;;;2.20;1.50;;;17.80;99.90;;;;;;4975099;28;20275;-63
2021/07/06 00:29:56;;;;;;;3.33;1.80;;;17.80;35.40;;;;;;4974913;28;20220;-63
2021/07/06 00:32:23;;;;;;;2.63;1.77;;;17.80;99.00;;;;;;4974876;28;20746;-63
2021/07/06 00:34:49;;;;;;;3.60;1.70;;;17.80;48.40;;;;;;4974739;28;20282;-63
2021/07/06 00:37:16;;;;;;;2.97;1.63;;;17.90;36.30;;;;;;4974935;28;20236;-63
2021/07/06 00:39:44;;;;;;;1.50;1.40;;;17.90;1.00;;;;;;4974832;28;20212;-63
2021/07/06 00:42:11;;;;;;;1.40;1.30;;;17.90;99.90;;;;;;4974796;28;20230;-64
2021/07/06 00:44:38;;;;;;;3.30;1.33;;;18.00;1.00;;;;;;4974762;28;20204;-63
2021/07/06 00:47:06;;;;;;;3.00;1.30;;;18.00;99.90;;;;;;4974439;28;20629;-63
2021/07/06 00:49:33;;;;;;;1.47;1.37;;;18.00;99.90;;;;;;4974968;28;20204;-63
2021/07/06 00:52:01;;;;;;;1.67;1.40;;;18.00;99.50;;;;;;4974720;28;20204;-63
2021/07/06 00:54:27;;;;;;;1.90;1.70;;;18.00;1.00;;;;;;4974424;28;20228;-64
2021/07/06 00:56:55;;;;;;;2.10;1.40;;;18.00;1.00;;;;;;4974224;28;20232;-64
2021/07/06 00:59:22;;;;;;;3.00;1.53;;;18.00;1.00;;;;;;4974417;28;20319;-63
2021/07/06 01:01:49;;;;;;;3.40;1.30;;;18.00;99.90;;;;;;4974582;28;20217;-63
2021/07/06 01:04:16;;;;;;;2.13;1.30;;;18.00;99.90;;;;;;4974498;28;20209;-63
2021/07/06 01:06:43;;;;;;;3.53;1.40;;;18.00;99.90;;;;;;4974501;28;20278;-63
2021/07/06 01:09:10;;;;;;;3.37;1.60;;;18.00;99.90;;;;;;4974379;28;20212;-63
2021/07/06 01:11:37;;;;;;;2.17;1.20;;;18.00;99.90;;;;;;4974292;28;20220;-63
2021/07/06 01:14:05;;;;;;;2.27;1.23;;;18.00;99.90;;;;;;4973690;28;20287;-63
2021/07/06 01:16:32;;;;;;;3.37;1.50;;;18.00;1.00;;;;;;4973991;28;20714;-63
2021/07/06 01:18:58;;;;;;;3.43;1.27;;;18.00;1.00;;;;;;4974218;28;20216;-63
2021/07/06 01:21:25;;;;;;;2.33;1.30;;;18.00;1.00;;;;;;4974184;28;20209;-63
2021/07/06 01:23:53;;;;;;;3.37;1.33;;;18.00;1.00;;;;;;4973944;28;20255;-63
2021/07/06 01:26:20;;;;;;;2.60;1.30;;;18.00;99.90;;;;;;4973985;28;20255;-63
2021/07/06 01:28:47;;;;;;;2.50;1.37;;;18.10;99.90;;;;;;4973839;28;20623;-63
2021/07/06 01:31:13;;;;;;;2.57;1.27;;;18.10;99.90;;;;;;4974127;28;20212;-64
2021/07/06 01:33:40;;;;;;;1.20;1.10;;;18.10;99.90;;;;;;4973402;28;20306;-63
2021/07/06 01:36:08;;;;;;;4.90;1.20;;;18.10;99.90;;;;;;4973393;28;20232;-63
2021/07/06 01:38:35;;;;;;;2.90;1.10;;;18.10;99.90;;;;;;4973794;28;20212;-63
2021/07/06 01:41:04;;;;;;;2.03;1.23;;;18.10;1.00;;;;;;4973543;28;20222;-63
2021/07/06 01:43:31;;;;;;;1.50;1.10;;;18.10;1.00;;;;;;4973579;28;20262;-63
2021/07/06 01:45:58;;;;;;;1.77;1.13;;;18.20;99.90;;;;;;4973603;28;20279;-64
2021/07/06 01:48:25;;;;;;;3.50;1.23;;;18.20;99.90;;;;;;4973678;28;20216;-63
2021/07/06 01:50:51;;;;;;;1.37;1.17;;;18.10;1.00;;;;;;4973553;28;20275;-63
2021/07/06 01:53:21;;;;;;;2.50;1.03;;;18.10;99.90;;;;;;4973518;28;20274;-63
2021/07/06 01:55:51;;;;;;;3.40;1.20;;;18.10;1.00;;;;;;4973066;28;20224;-64
2021/07/06 01:58:21;;;;;;;2.60;1.07;;;18.10;1.00;;;;;;4973391;28;20635;-63
2021/07/06 02:00:49;;;;;;;1.23;1.07;;;18.10;99.90;;;;;;4973457;28;20677;-63
2021/07/06 02:03:16;;;;;;;2.57;1.17;;;18.10;1.00;;;;;;4973420;28;20274;-63
2021/07/06 02:05:45;;;;;;;3.40;1.07;;;18.00;1.00;;;;;;4973176;28;20228;-63
2021/07/06 02:08:13;;;;;;;2.87;1.03;;;18.00;1.00;;;;;;4973200;28;20278;-63
2021/07/06 02:10:41;;;;;;;1.00;0.90;;;18.00;1.00;;;;;;4973543;28;20215;-64
2021/07/06 02:13:09;;;;;;;4.27;1.10;;;18.10;99.90;;;;;;4973181;28;20239;-63
2021/07/06 02:15:38;;;;;;;2.83;1.13;;;18.10;99.90;;;;;;4973146;28;20235;-63
2021/07/06 02:18:05;;;;;;;6.37;1.20;;;18.10;99.90;;;;;;4973394;28;20208;-64
2021/07/06 02:20:32;;;;;;;2.47;1.30;;;18.00;99.90;;;;;;4973202;28;20642;-63
2021/07/06 02:22:58;;;;;;;3.17;1.50;;;18.00;99.90;;;;;;4973117;28;20623;-64
2021/07/06 02:25:25;;;;;;;2.30;1.10;;;18.00;99.90;;;;;;4974420;28;20625;-63
2021/07/06 02:27:53;;;;;;;2.13;1.20;;;18.00;1.00;;;;;;4974168;28;20208;-63
2021/07/06 02:30:21;;;;;;;2.67;1.40;;;17.90;1.00;;;;;;4973941;28;20230;-63
2021/07/06 02:32:50;;;;;;;1.90;1.13;;;17.90;1.00;;;;;;4973487;28;20208;-63
2021/07/06 02:35:18;;;;;;;4.30;1.40;;;17.90;1.00;;;;;;4972944;28;20283;-63
2021/07/06 02:37:45;;;;;;;1.53;1.20;;;17.90;1.00;;;;;;4973285;28;20704;-63
2021/07/06 02:40:14;;;;;;;1.97;1.50;;;17.90;99.90;;;;;;4972986;28;20212;-63
2021/07/06 02:42:41;;;;;;;2.47;1.40;;;17.80;99.90;;;;;;4972952;28;20772;-63
2021/07/06 02:45:10;;;;;;;3.87;1.50;;;17.80;1.00;;;;;;4972965;28;20209;-65
2021/07/06 02:47:37;;;;;;;2.80;1.43;;;17.80;1.00;;;;;;4976808;28;20232;-63
2021/07/06 02:50:07;;;;;;;5.70;1.43;;;17.70;14.90;;;;;;4976580;28;20212;-63
2021/07/06 02:52:34;;;;;;;3.80;1.20;;;17.80;1.00;;;;;;4976746;28;20684;-63
2021/07/06 02:55:01;;;;;;;1.53;1.00;;;17.80;1.00;;;;;;4976603;28;20275;-63
2021/07/06 02:57:37;;;;;;;1.63;1.37;;;17.80;1.00;;;;;;4976541;28;20286;-63
2021/07/06 03:00:13;;;;;;;1.93;1.23;;;17.90;1.00;;;;;;4976752;28;20216;-63
2021/07/06 03:02:40;;;;;;;2.60;1.20;;;18.00;99.90;;;;;;4976484;28;20219;-63
2021/07/06 03:05:11;;;;;;;1.80;1.13;;;18.00;99.90;;;;;;4976492;28;20212;-63
2021/07/06 03:07:39;;;;;;;4.97;1.30;;;18.00;99.90;;;;;;4976475;28;20283;-63
2021/07/06 03:10:08;;;;;;;2.50;1.20;;;18.00;99.90;;;;;;4976456;28;20208;-63
2021/07/06 03:12:35;;;;;;;1.57;1.10;;;18.00;99.90;;;;;;4976315;28;20208;-63
2021/07/06 03:15:01;;;;;;;1.70;1.20;;;18.00;99.90;;;;;;4975981;28;20259;-63
2021/07/06 03:17:28;;;;;;;3.57;1.57;;;18.10;1.00;;;;;;4976111;28;20232;-63
2021/07/06 03:19:55;;;;;;;1.50;1.13;;;18.10;1.00;;;;;;4976440;28;20259;-63
2021/07/06 03:22:23;;;;;;;2.50;1.27;;;18.20;1.00;;;;;;4976250;28;20208;-63
2021/07/06 03:24:49;;;;;;;2.13;1.20;;;18.20;99.90;;;;;;4976085;28;20208;-63
2021/07/06 03:27:17;;;;;;;2.37;1.00;;;18.30;99.90;;;;;;4976079;28;20224;-63
2021/07/06 03:29:43;;;;;;;2.63;1.33;;;18.30;99.90;;;;;;4976102;28;20216;-63
2021/07/06 03:32:11;;;;;;;7.20;1.20;;;18.30;99.90;;;;;;4976193;28;20209;-63
2021/07/06 03:34:38;;;;;;;4.27;1.20;;;18.40;59.90;;;;;;4975781;28;20278;-63
2021/07/06 03:37:07;;;;;;;3.07;1.13;;;18.40;21.90;;;;;;4976109;28;20286;-63
2021/07/06 03:39:35;;;;;;;1.33;1.00;;;18.40;1.00;;;;;;4976068;28;20585;-63
2021/07/06 03:42:03;;;;;;;4.27;1.07;;;18.40;1.00;;;;;;4975752;28;20637;-63
2021/07/06 03:44:29;;;;;;;2.13;1.20;;;18.50;1.00;;;;;;4975852;28;20259;-63
2021/07/06 03:46:56;;;;;;;3.20;1.10;;;18.50;99.90;;;;;;4975734;28;20779;-63
2021/07/06 03:49:22;;;;;;;3.87;1.70;;;18.50;99.90;;;;;;4975776;28;20212;-63
2021/07/06 03:51:49;;;;;;;3.17;1.10;;;18.50;99.90;;;;;;4975867;28;20209;-63
2021/07/06 03:54:16;;;;;;;2.87;1.13;;;18.60;99.90;;;;;;4975518;28;20274;-63
2021/07/06 03:56:44;;;;;;;4.20;1.33;;;18.60;99.90;;;;;;4974910;28;20240;-63
2021/07/06 03:59:10;;;;;;;3.43;0.90;;;18.60;99.90;;;;;;4975251;28;20263;-63
2021/07/06 04:01:37;;;;;;;2.23;1.33;;;18.70;99.90;;;;;;4975744;28;20208;-63
2021/07/06 04:04:04;;;;;;;2.10;1.03;;;18.70;99.90;;;;;;4975332;28;20696;-63
2021/07/06 04:06:31;;;;;;;4.17;1.13;;;18.80;99.90;;;;;;4975522;28;20232;-63
2021/07/06 04:08:58;;;;;;;1.07;0.90;;;18.80;99.90;;;;;;4975291;28;20272;-63
2021/07/06 04:11:24;;;;;;;2.37;1.17;;;18.80;99.90;;;;;;4975377;28;20220;-63
2021/07/06 04:13:52;;;;;;;3.93;1.60;;;18.80;99.90;;;;;;4975176;28;20724;-63
2021/07/06 04:16:19;;;;;;;4.53;1.40;;;18.90;99.90;;;;;;4975124;28;20705;-63
2021/07/06 04:18:46;;;;;;;3.90;1.43;;;18.90;99.90;;;;;;4973214;28;20268;-63
2021/07/06 04:21:12;;;;;;;2.63;1.30;;;19.00;99.90;;;;;;4975059;28;20685;-63
2021/07/06 04:23:39;;;;;;;5.07;1.07;;;19.00;99.90;;;;;;4974682;28;20216;-63
2021/07/06 04:26:07;;;;;;;2.77;1.27;;;19.10;99.90;;;;;;4975044;28;20231;-63
2021/07/06 04:28:34;;;;;;;2.23;1.20;;;19.10;99.90;;;;;;4975089;28;20402;-63
2021/07/06 04:31:02;;;;;;;4.27;1.90;;;19.20;66.80;;;;;;4975102;28;20204;-63
2021/07/06 04:33:29;;;;;;;2.83;1.10;;;19.20;52.90;;;;;;4974738;28;20299;-63
2021/07/06 04:35:56;;;;;;;2.87;1.17;;;19.20;91.10;;;;;;4974781;28;20236;-63
2021/07/06 04:38:22;;;;;;;1.93;1.00;;;19.30;48.80;;;;;;4978724;28;20208;-63
2021/07/06 04:40:49;;;;;;;1.27;1.10;;;19.40;21.60;;;;;;4974002;28;20263;-63
2021/07/06 04:43:16;;;;;;;3.63;1.70;;;19.40;4.80;;;;;;4974380;28;20251;-62
2021/07/06 04:45:43;;;;;;;4.67;1.30;;;19.50;1.00;;;;;;4974487;28;20240;-62
2021/07/06 04:48:11;;;;;;;6.17;1.77;;;19.60;1.00;;;;;;4974509;28;20212;-62
2021/07/06 04:50:39;;;;;;;3.57;1.47;;;19.70;1.00;;;;;;4974265;28;20239;-62
2021/07/06 04:53:06;;;;;;;3.53;1.30;;;19.70;1.00;;;;;;4974481;28;20613;-62
2021/07/06 04:55:35;;;;;;;2.33;1.33;;;19.70;1.00;;;;;;4974178;28;20228;-62
2021/07/06 04:58:01;;;;;;;4.10;1.40;;;19.60;1.00;;;;;;4974332;28;20216;-62
2021/07/06 05:00:28;;;;;;;2.17;1.40;;;19.70;1.00;;;;;;4974292;28;20279;-62
2021/07/06 05:02:55;;;;;;;4.27;1.20;;;19.70;1.00;;;;;;4974335;28;20263;-62
2021/07/06 05:05:23;;;;;;;3.70;1.17;;;19.70;1.00;;;;;;4973899;28;20200;-62
2021/07/06 05:07:50;;;;;;;3.83;1.27;;;19.70;1.00;;;;;;4974281;28;20208;-62
2021/07/06 05:10:17;;;;;;;3.93;1.40;;;19.70;1.00;;;;;;4974232;28;20673;-62
2021/07/06 05:12:44;;;;;;;3.67;1.30;;;19.70;1.00;;;;;;4974212;28;20207;-62
2021/07/06 05:15:11;;;;;;;3.43;1.47;;;19.70;22.20;;;;;;4973855;28;20601;-62
2021/07/06 05:17:37;;;;;;;2.53;1.37;;;19.60;80.20;;;;;;4974128;28;20232;-63
2021/07/06 05:20:05;;;;;;;5.40;1.50;;;19.50;97.50;;;;;;4973742;28;20263;-63
2021/07/06 05:22:33;;;;;;;4.30;1.60;;;19.50;99.90;;;;;;4974091;28;20240;-63
2021/07/06 05:24:59;;;;;;;1.73;1.33;;;19.40;99.90;;;;;;4973679;28;20240;-63
2021/07/06 05:27:26;;;;;;;1.40;1.07;;;19.40;99.90;;;;;;4971906;28;20294;-63
2021/07/06 05:29:53;;;;;;;3.77;1.57;;;19.30;99.90;;;;;;4968610;28;20208;-61
2021/07/06 05:32:21;;;;;;;2.77;1.50;;;19.30;99.90;;;;;;4969981;28;20272;-62
2021/07/06 05:34:48;;;;;;;1.60;1.30;;;19.20;99.90;;;;;;4970201;28;20232;-63
2021/07/06 05:37:15;;;;;;;4.93;1.20;;;19.20;1.00;;;;;;4970903;28;20247;-62
2021/07/06 05:39:44;;;;;;;3.07;1.40;;;19.20;1.00;;;;;;4969356;28;20216;-62
2021/07/06 05:42:11;;;;;;;3.00;1.20;;;19.00;99.90;;;;;;4970884;28;20208;-60
2021/07/06 05:44:39;;;;;;;2.97;1.40;;;19.00;99.90;;;;;;4972973;28;20212;-59
2021/07/06 05:47:05;;;;;;;3.30;1.70;;;18.90;1.00;;;;;;4972961;28;20240;-61
2021/07/06 05:49:32;;;;;;;2.23;1.70;;;18.70;99.90;;;;;;4973002;28;20204;-60
2021/07/06 05:51:59;;;;;;;3.10;1.60;;;18.60;99.90;;;;;;4973034;28;20212;-61
2021/07/06 05:54:25;;;;;;;2.20;1.63;;;18.50;1.00;;;;;;4973086;28;20216;-61
2021/07/06 05:56:53;;;;;;;3.40;1.93;;;18.40;1.00;;;;;;4972687;28;20704;-59
2021/07/06 05:59:20;;;;;;;4.13;2.10;;;18.40;1.00;;;;;;4972938;28;20267;-60
2021/07/06 06:01:47;;;;;;;4.97;1.90;;;18.30;1.00;;;;;;4972806;28;20659;-63
2021/07/06 06:04:15;;;;;;;8.43;1.90;;;18.20;99.90;;;;;;4973023;28;20212;-61
2021/07/06 06:06:41;;;;;;;7.27;2.07;;;18.20;99.90;;;;;;4973207;28;20776;-61
2021/07/06 06:09:08;;;;;;;3.63;2.10;;;18.10;98.90;;;;;;4973273;28;20255;-60
2021/07/06 06:11:35;;;;;;;8.00;1.97;;;18.10;99.90;;;;;;4972991;28;20736;-62
2021/07/06 06:14:03;;;;;;;6.23;2.10;;;18.00;1.00;;;;;;4972530;28;20208;-61
2021/07/06 06:16:29;;;;;;;2.60;2.10;;;18.10;1.00;;;;;;4972915;28;20228;-61
2021/07/06 06:18:56;;;;;;;2.93;1.70;;;18.10;75.40;;;;;;4972569;28;20208;-61
2021/07/06 06:21:23;;;;;;;2.23;1.90;;;18.00;99.90;;;;;;4972391;28;20267;-59
2021/07/06 06:23:50;;;;;;;4.13;2.13;;;18.00;1.00;;;;;;4973293;28;20262;-59
2021/07/06 06:26:16;;;;;;;3.70;2.40;;;18.00;99.90;;;;;;4973221;28;20651;-58
2021/07/06 06:28:43;;;;;;;3.50;2.17;;;18.00;30.60;;;;;;4972693;28;20216;-59
2021/07/06 06:31:11;;;;;;;4.67;2.33;;;18.00;99.90;;;;;;4973054;28;20270;-59
2021/07/06 06:33:38;;;;;;;3.00;1.80;;;18.00;86.90;;;;;;4972765;28;20623;-60
2021/07/06 06:36:05;;;;;;;5.77;2.07;;;18.00;99.90;;;;;;4972769;28;20228;-58
2021/07/06 06:38:31;;;;;;;3.17;1.87;;;18.00;1.00;;;;;;4972496;28;20673;-59
2021/07/06 06:40:58;;;;;;;3.13;1.87;;;18.00;99.90;;;;;;4972279;28;20263;-58
2021/07/06 06:43:25;;;;;;;3.43;1.30;;;17.90;1.00;;;;;;4972321;28;20224;-59
2021/07/06 06:45:51;;;;;;;1.73;1.50;;;17.90;1.00;;;;;;4972443;28;20936;-59
2021/07/06 06:48:19;;;;;;;1.80;1.20;;;17.90;99.90;;;;;;4972762;28;20204;-59
2021/07/06 06:50:46;;;;;;;4.30;1.37;;;17.90;99.90;;;;;;4972366;28;20275;-60
2021/07/06 06:53:13;;;;;;;1.20;1.10;;;17.80;99.90;;;;;;4972567;28;20622;-62
2021/07/06 06:55:40;;;;;;;1.40;0.90;;;17.80;99.90;;;;;;4972101;28;20228;-61
2021/07/06 06:58:06;;;;;;;1.87;1.23;;;17.80;99.90;;;;;;4972400;28;20560;-61
2021/07/06 07:00:35;;;;;;;1.30;0.97;;;17.70;99.90;;;;;;4972235;28;20684;-62
2021/07/06 07:03:01;;;;;;;3.17;1.30;;;17.70;1.00;;;;;;4972566;28;20223;-61
2021/07/06 07:05:29;;;;;;;2.27;1.00;;;17.60;1.00;;;;;;4972353;28;20267;-61
2021/07/06 07:07:58;;;;;;;1.30;0.90;;;17.70;99.90;;;;;;4972372;28;20212;-61
2021/07/06 07:10:24;;;;;;;3.70;1.40;;;17.60;1.00;;;;;;4972000;28;20725;-62
2021/07/06 07:12:53;;;;;;;1.03;0.80;;;17.60;1.00;;;;;;4972636;28;20216;-62
2021/07/06 07:15:20;;;;;;;2.97;1.20;;;17.60;1.00;;;;;;4972040;28;20221;-63
2021/07/06 07:17:46;;;;;;;2.10;1.40;;;17.60;67.30;;;;;;4972321;28;20256;-62
2021/07/06 07:20:14;;;;;;;2.10;1.17;;;17.60;99.90;;;;;;4972000;28;20205;-63
2021/07/06 07:22:43;;;;;;;3.03;1.60;;;17.50;1.00;;;;;;4972383;28;20213;-62
2021/07/06 07:25:11;;;;;;;2.70;1.30;;;17.50;99.90;;;;;;4972106;28;20216;-60
2021/07/06 07:27:37;;;;;;;2.50;1.70;;;17.40;99.90;;;;;;4972458;28;20228;-65
2021/07/06 07:30:05;;;;;;;4.40;1.77;;;17.50;26.60;;;;;;4972078;28;20781;-65
2021/07/06 07:32:32;;;;;;;2.33;1.60;;;17.60;99.90;;;;;;4972999;28;20216;-66
2021/07/06 07:34:59;;;;;;;2.43;1.80;;;17.60;1.00;;;;;;4975658;28;20216;-66
2021/07/06 07:37:25;;;;;;;2.17;1.80;;;17.70;1.00;;;;;;4975420;28;20646;-66
2021/07/06 07:39:53;;;;;;;3.03;2.00;;;17.70;99.90;;;;;;4975590;28;20563;-65
2021/07/06 07:42:21;;;;;;;4.10;1.50;;;17.80;99.90;;;;;;4975700;28;20638;-64
2021/07/06 07:44:47;;;;;;;1.57;1.20;;;17.90;99.90;;;;;;4975163;28;20232;-64
2021/07/06 07:47:14;;;;;;;5.33;2.20;;;18.00;99.90;;;;;;4975310;28;20302;-66
2021/07/06 07:49:41;;;;;;;4.87;2.13;;;18.10;99.90;;;;;;4975194;28;20219;-66
2021/07/06 07:52:09;;;;;;;2.73;1.60;;;18.20;1.00;;;;;;4975394;28;20204;-66
2021/07/06 07:54:36;;;;;;;3.57;1.60;;;18.20;1.00;;;;;;4976627;28;20218;-67
2021/07/06 07:57:06;;;;;;;4.87;1.63;;;18.20;89.10;;;;;;4977234;28;20233;-67
2021/07/06 07:59:33;;;;;;;3.07;1.47;;;18.30;99.90;;;;;;4976737;28;20259;-67
2021/07/06 08:02:00;;;;;;;3.07;1.50;;;18.30;75.90;;;;;;4976437;28;20651;-65
2021/07/06 08:04:26;;;;;;;9.33;2.30;;;18.40;99.90;;;;;;4976693;28;20623;-66
2021/07/06 08:06:53;;;;;;;2.60;1.50;;;18.40;7.70;;;;;;4981019;28;20279;-66
2021/07/06 08:09:19;;;;;;;3.83;1.60;;;18.40;34.10;;;;;;4979488;28;20740;-66
2021/07/06 08:11:46;;;;;;;2.60;1.57;;;18.50;99.90;;;;;;4975569;28;20263;-66
2021/07/06 08:14:14;;;;;;;4.03;1.97;;;18.50;99.90;;;;;;4975045;28;20291;-66
2021/07/06 08:16:41;;;;;;;1.93;1.70;;;18.50;1.00;;;;;;4974747;28;20236;-66
2021/07/06 08:19:07;;;;;;;2.67;1.30;;;18.50;1.00;;;;;;4973948;28;20204;-66
2021/07/06 08:21:35;;;;;;;2.80;1.60;;;18.60;1.00;;;;;;4974713;28;20211;-66
2021/07/06 08:24:03;;;;;;;2.40;1.67;;;18.60;99.90;;;;;;4974635;28;20208;-66
2021/07/06 08:26:31;;;;;;;1.93;1.60;;;18.70;1.00;;;;;;4974593;28;20319;-67
2021/07/06 08:28:58;;;;;;;1.40;1.10;;;18.70;1.00;;;;;;4974374;28;20209;-64
2021/07/06 08:31:26;;;;;;;2.93;1.30;;;18.70;99.90;;;;;;4974463;28;20208;-65
2021/07/06 08:33:52;;;;;;;3.03;1.50;;;18.80;99.90;;;;;;4974157;28;20275;-65
2021/07/06 08:36:19;;;;;;;2.20;1.53;;;18.80;1.00;;;;;;4974762;28;20291;-65
2021/07/06 08:38:46;;;;;;;5.20;1.57;;;18.80;1.00;;;;;;4974197;28;20204;-65
2021/07/06 08:41:13;;;;;;;2.93;1.43;;;18.90;99.90;;;;;;4974843;28;20758;-65
2021/07/06 08:43:40;;;;;;;5.20;1.40;;;18.90;99.90;;;;;;4973636;28;20570;-65
2021/07/06 08:46:07;;;;;;;2.50;1.30;;;19.00;99.90;;;;;;4974050;28;20291;-67
2021/07/06 08:48:36;;;;;;;2.17;1.23;;;19.10;99.90;;;;;;4974223;28;20212;-65
2021/07/06 08:51:04;;;;;;;1.57;1.07;;;19.20;1.00;;;;;;4974009;28;20669;-66
2021/07/06 08:53:31;;;;;;;3.60;1.40;;;19.40;99.90;;;;;;4973895;28;20222;-66
2021/07/06 08:55:58;;;;;;;2.13;1.40;;;19.40;99.90;;;;;;4973916;28;20644;-67
2021/07/06 08:58:25;;;;;;;2.40;1.30;;;19.40;1.00;;;;;;4973899;28;20220;-66
2021/07/06 09:00:52;;;;;;;3.47;1.47;;;19.50;99.90;;;;;;4973593;28;20208;-66
2021/07/06 09:03:18;;;;;;;2.10;1.40;;;19.70;1.00;;;;;;4974206;28;20204;-65
2021/07/06 09:05:46;;;;;;;1.83;1.20;;;19.60;99.90;;;;;;4973854;28;20229;-65
2021/07/06 09:08:17;;;;;;;1.87;1.20;;;19.60;99.90;;;;;;4973613;28;20582;-64
2021/07/06 09:10:44;;;;;;;3.07;1.20;;;19.60;1.00;;;;;;4973624;28;20216;-64
2021/07/06 09:13:25;;;;;;;1.47;1.23;;;19.50;1.00;;;;;;4973586;28;20282;-64
2021/07/06 09:15:53;;;;;;;4.20;1.00;;;19.50;99.90;;;;;;4973788;28;20235;-65
2021/07/06 09:18:21;;;;;;;1.37;1.10;;;19.50;99.90;;;;;;4973424;28;20267;-64
2021/07/06 09:21:05;;;;;;;1.37;0.97;;;19.50;99.90;;;;;;4974530;28;20204;-67
2021/07/06 09:23:34;;;;;;;1.57;0.93;;;19.60;99.90;;;;;;4973431;28;20207;-65
2021/07/06 09:26:21;;;;;;;1.43;0.93;;;19.70;1.00;;;;;;4973598;28;20228;-68
2021/07/06 09:28:49;;;;;;;1.50;1.17;;;19.80;99.90;;;;;;4973673;28;20232;-68
2021/07/06 09:31:24;;;;;;;2.00;0.80;;;19.90;99.90;;;;;;4973693;28;20212;-67
2021/07/06 09:33:54;;;;;;;1.73;1.20;;;19.80;99.90;;;;;;4973434;28;20196;-66
2021/07/06 09:36:34;;;;;;;3.43;0.83;;;19.80;1.00;;;;;;4973090;28;20626;-64
2021/07/06 09:39:06;;;;;;;2.73;1.03;;;19.80;1.00;;;;;;4973272;28;20266;-65
2021/07/06 09:41:33;;;;;;;4.77;1.13;;;19.90;1.00;;;;;;4973552;28;20208;-64
2021/07/06 09:44:17;;;;;;;1.40;0.90;;;19.90;99.90;;;;;;4973336;28;20212;-64
2021/07/06 09:46:49;;;;;;;1.20;1.07;;;20.00;99.90;;;;;;4973135;28;20232;-64
2021/07/06 09:49:18;;;;;;;2.00;1.30;;;20.00;99.90;;;;;;4973091;28;20212;-64
2021/07/06 09:51:47;;;;;;;2.17;0.87;;;20.00;99.90;;;;;;4973421;28;20677;-67
2021/07/06 09:54:28;;;;;;;2.27;1.07;;;19.90;99.90;;;;;;4973067;28;20222;-65
2021/07/06 09:57:22;;;;;;;2.40;1.13;;;19.80;1.00;;;;;;4972345;28;20239;-65
2021/07/06 10:00:00;;;;;;;1.77;1.27;;;19.80;99.90;;;;;;4973047;28;20212;-66
2021/07/06 10:02:29;;;;;;;2.63;0.97;;;19.90;99.90;;;;;;4972726;28;20646;-66
2021/07/06 10:04:57;;;;;;;1.13;1.00;;;19.90;1.00;;;;;;4973032;28;20223;-65
2021/07/06 10:07:26;;;;;;;2.83;1.30;;;19.80;1.00;;;;;;4972564;28;20352;-66
2021/07/06 10:09:54;;;;;;;2.00;1.33;;;19.90;1.00;;;;;;4973372;28;20212;-66
2021/07/06 10:12:24;;;;;;;2.53;1.10;;;19.80;1.00;;;;;;4973103;28;20262;-64
2021/07/06 10:14:51;;;;;;;2.50;1.00;;;19.80;1.00;;;;;;4973828;28;20204;-68
2021/07/06 10:17:20;;;;;;;1.20;0.87;;;19.70;1.00;;;;;;4972755;28;20232;-67
2021/07/06 10:19:47;;;;;;;2.97;1.10;;;19.70;1.00;;;;;;4972547;28;20219;-68
2021/07/06 10:22:15;;;;;;;2.20;0.73;;;19.70;1.00;;;;;;4972675;28;20216;-65
2021/07/06 10:24:45;;;;;;;2.47;1.20;;;19.70;1.00;;;;;;4972754;28;20216;-66
2021/07/06 10:27:17;;;;;;;1.57;1.23;;;19.70;1.00;;;;;;4973078;28;20767;-65
2021/07/06 10:29:44;;;;;;;4.67;1.23;;;19.60;1.00;;;;;;4972599;28;20223;-65
2021/07/06 10:32:39;;;;;;;2.53;1.43;;;19.70;1.00;;;;;;4973042;28;20212;-66
2021/07/06 10:35:08;;;;;;;1.63;1.10;;;19.80;1.00;;;;;;4972562;28;20571;-66
2021/07/06 10:37:34;;;;;;;3.33;1.03;;;19.90;1.00;;;;;;4972911;28;20254;-65
2021/07/06 10:40:19;;;;;;;2.00;0.97;;;20.00;99.90;;;;;;4972651;28;20208;-66
2021/07/06 10:42:49;;;;;;;2.43;0.93;;;20.00;99.90;;;;;;4971643;28;20238;-64
2021/07/06 10:45:22;;;;;;;1.50;1.10;;;20.10;99.90;;;;;;4972736;28;20208;-63
2021/07/06 10:47:49;;;;;;;1.00;0.70;;;20.10;32.30;;;;;;4972691;28;20228;-64
2021/07/06 10:50:53;;;;;;;4.67;1.27;;;20.20;55.60;;;;;;4972251;28;20204;-64
2021/07/06 10:53:24;;;;;;;3.47;0.90;;;20.20;14.90;;;;;;4972359;28;20215;-65
2021/07/06 10:56:07;;;;;;;1.93;1.07;;;20.40;9.70;;;;;;4973491;28;20323;-65
2021/07/06 10:58:54;;;;;;;1.10;0.80;;;20.70;10.70;;;;;;4972277;28;20219;-64
2021/07/06 11:01:53;;;;;;;1.10;0.87;;;20.90;1.00;;;;;;4972288;28;20248;-65
2021/07/06 11:05:02;;;;;;;2.90;0.90;;;21.20;1.00;;;;;;4972425;28;20208;-65
2021/07/06 11:07:54;;;;;;;1.40;1.17;;;21.50;1.00;;;;;;4974278;28;20235;-64
2021/07/06 11:10:32;;;;;;;2.13;0.73;;;21.40;1.00;;;;;;4975996;28;20235;-64
2021/07/06 11:13:16;;;;;;;1.73;0.80;;;21.30;1.00;;;;;;4976456;28;20299;-65
2021/07/06 11:15:43;;;;;;;2.10;0.83;;;21.50;1.00;;;;;;4976216;28;20208;-65
2021/07/06 11:18:10;;;;;;;1.00;0.90;;;21.40;1.00;;;;;;4976264;28;20732;-65
2021/07/06 11:20:40;;;;;;;2.10;1.00;;;21.30;1.00;;;;;;4976694;28;20323;-65
2021/07/06 11:23:08;;;;;;;1.13;0.73;;;21.40;1.00;;;;;;4976637;28;20795;-65
2021/07/06 11:25:44;;;;;;;1.43;0.80;;;21.70;1.00;;;;;;4975664;28;20266;-64
2021/07/06 11:28:15;;;;;;;2.13;0.80;;;21.90;99.90;;;;;;4975729;28;20200;-64
2021/07/06 11:30:45;;;;;;;2.47;0.80;;;21.70;99.90;;;;;;4975947;28;20566;-64
2021/07/06 11:33:13;;;;;;;2.63;0.70;;;21.60;99.90;;;;;;4976046;28;20204;-64
2021/07/06 11:35:41;;;;;;;0.90;0.80;;;21.70;99.90;;;;;;4975978;28;20212;-63
2021/07/06 11:38:10;;;;;;;1.23;1.13;;;21.90;99.90;;;;;;4975479;28;20224;-66
2021/07/06 11:40:38;;;;;;;2.97;0.80;;;22.10;99.90;;;;;;4975316;28;20216;-66
2021/07/06 11:43:05;;;;;;;1.80;0.60;;;22.10;99.90;;;;;;4975501;28;20208;-65
2021/07/06 11:45:34;;;;;;;0.60;0.50;;;22.30;99.90;;;;;;4975071;28;20294;-66
2021/07/06 11:48:05;;;;;;;1.63;0.40;;;22.20;99.90;;;;;;4975144;28;20680;-66
2021/07/06 11:50:33;;;;;;;2.00;0.60;;;22.00;99.90;;;;;;4975170;28;20212;-66
2021/07/06 11:52:59;;;;;;;2.20;0.80;;;21.90;99.90;;;;;;4975342;28;20220;-65
2021/07/06 11:55:27;;;;;;;1.53;0.70;;;21.90;99.90;;;;;;4975005;28;20208;-64
2021/07/06 11:57:55;;;;;;;4.17;0.80;;;21.80;99.90;;;;;;4974815;28;20256;-66
2021/07/06 12:00:23;;;;;;;2.23;0.70;;;21.60;99.90;;;;;;4975287;28;20259;-66
2021/07/06 12:02:52;;;;;;;1.37;0.50;;;21.40;99.90;;;;;;4982847;28;20208;-67
2021/07/06 12:05:20;;;;;;;0.97;0.60;;;21.50;99.90;;;;;;4990034;28;20204;-67
2021/07/06 12:07:46;;;;;;;2.57;0.50;;;21.50;99.90;;;;;;4980711;28;20228;-67
2021/07/06 12:10:13;;;;;;;1.73;0.73;;;21.60;99.90;;;;;;4975728;28;20209;-68
2021/07/06 12:12:40;;;;;;;2.97;0.87;;;21.70;99.90;;;;;;4979693;28;20219;-67
2021/07/06 12:15:08;;;;;;;2.47;0.77;;;22.00;99.90;;;;;;4997280;28;20704;-67
2021/07/06 12:17:35;;;;;;;2.73;0.50;;;22.40;99.90;;;;;;4999061;28;20251;-67
2021/07/06 12:20:16;;;;;;;2.20;0.50;;;22.70;99.90;;;;;;4974788;28;20208;-65
2021/07/06 12:22:42;;;;;;;1.83;0.70;;;22.40;99.90;;;;;;4975075;28;20259;-65
2021/07/06 12:25:11;;;;;;;4.33;0.97;;;22.00;99.90;;;;;;4974919;28;20212;-66
2021/07/06 12:27:38;;;;;;;1.40;0.73;;;21.80;99.90;;;;;;4975364;28;20243;-65
2021/07/06 12:30:07;;;;;;;1.07;0.47;;;22.00;99.90;;;;;;4974708;28;20211;-67
2021/07/06 12:32:33;;;;;;;1.00;0.60;;;22.00;99.90;;;;;;4975056;28;20208;-67
2021/07/06 12:35:00;;;;;;;1.10;0.50;;;22.00;99.90;;;;;;4975004;28;20267;-67
2021/07/06 12:37:30;;;;;;;1.80;0.60;;;22.20;99.90;;;;;;4974546;28;20232;-66
2021/07/06 12:40:05;;;;;;;1.83;0.60;;;22.40;99.90;;;;;;4974508;28;20244;-65
2021/07/06 12:42:36;;;;;;;4.20;0.70;;;22.60;99.90;;;;;;4974435;28;20211;-65
2021/07/06 12:45:08;;;;;;;2.40;0.60;;;22.80;99.90;;;;;;4974041;28;20211;-68
2021/07/06 12:47:38;;;;;;;1.97;0.67;;;22.80;99.90;;;;;;4973072;28;20232;-64
2021/07/06 12:50:07;;;;;;;4.00;0.50;;;22.90;99.90;;;;;;4973720;28;20239;-64
2021/07/06 12:52:38;;;;;;;1.70;0.60;;;23.20;99.90;;;;;;4974479;28;20291;-64
2021/07/06 12:55:09;;;;;;;2.77;0.40;;;23.40;99.90;;;;;;4974309;28;20208;-64
2021/07/06 12:57:36;;;;;;;2.57;0.60;;;23.30;99.90;;;;;;4974287;28;20228;-64